sensor_id;sensor_type;location;lat;lon;timestamp;pressure;altitude;pressure_sealevel;temperature;humidity
37694;BME280;23531;50.122;8.644;2023-04-26T00:01:12;100688.06;;;9.72;48.60
37694;BME280;23531;50.122;8.644;2023-04-26T00:03:13;100690.56;;;9.74;48.72
37694;BME280;23531;50.122;8.644;2023-04-26T00:05:15;100700.81;;;9.64;48.83
37694;BME280;23531;50.122;8.644;2023-04-26T00:07:18;100701.38;;;9.53;48.56
37694;BME280;23531;50.122;8.644;2023-04-26T00:09:21;100701.94;;;9.48;48.73
37694;BME280;23531;50.122;8.644;2023-04-26T00:11:22;100700.16;;;9.55;48.94
37694;BME280;23531;50.122;8.644;2023-04-26T00:13:23;100695.63;;;9.56;48.69
37694;BME280;23531;50.122;8.644;2023-04-26T00:15:24;100707.38;;;9.55;48.94
37694;BME280;23531;50.122;8.644;2023-04-26T00:17:26;100702.94;;;9.40;49.15
37694;BME280;23531;50.122;8.644;2023-04-26T00:19:27;100712.84;;;9.40;49.30
37694;BME280;23531;50.122;8.644;2023-04-26T00:21:29;100707.66;;;9.38;49.64
37694;BME280;23531;50.122;8.644;2023-04-26T00:23:30;100713.09;;;9.45;49.65
37694;BME280;23531;50.122;8.644;2023-04-26T00:25:33;100710.78;;;9.42;49.53
37694;BME280;23531;50.122;8.644;2023-04-26T00:27:34;100709.28;;;9.33;49.76
37694;BME280;23531;50.122;8.644;2023-04-26T00:29:36;100723.34;;;9.35;50.02
37694;BME280;23531;50.122;8.644;2023-04-26T00:31:37;100716.44;;;9.26;50.53
37694;BME280;23531;50.122;8.644;2023-04-26T00:33:38;100717.88;;;9.22;50.58
37694;BME280;23531;50.122;8.644;2023-04-26T00:35:39;100715.13;;;8.94;51.69
37694;BME280;23531;50.122;8.644;2023-04-26T00:37:40;100712.72;;;8.99;51.85
37694;BME280;23531;50.122;8.644;2023-04-26T00:39:42;100711.81;;;9.13;51.54
37694;BME280;23531;50.122;8.644;2023-04-26T00:41:44;100712.19;;;9.10;51.66
37694;BME280;23531;50.122;8.644;2023-04-26T00:43:47;100718.25;;;8.97;52.28
37694;BME280;23531;50.122;8.644;2023-04-26T00:45:49;100714.25;;;8.87;52.60
37694;BME280;23531;50.122;8.644;2023-04-26T00:47:50;100718.31;;;9.04;52.40
37694;BME280;23531;50.122;8.644;2023-04-26T00:49:52;100709.06;;;8.85;52.53
37694;BME280;23531;50.122;8.644;2023-04-26T00:51:53;100713.47;;;8.93;52.90
37694;BME280;23531;50.122;8.644;2023-04-26T00:53:55;100713.53;;;8.99;52.45
37694;BME280;23531;50.122;8.644;2023-04-26T00:55:56;100715.63;;;9.04;52.28
37694;BME280;23531;50.122;8.644;2023-04-26T00:57:59;100710.25;;;9.04;52.68
37694;BME280;23531;50.122;8.644;2023-04-26T01:00:01;100715.13;;;8.94;52.42
37694;BME280;23531;50.122;8.644;2023-04-26T01:02:03;100706.53;;;8.98;52.56
37694;BME280;23531;50.122;8.644;2023-04-26T01:04:04;100710.06;;;9.05;52.81
37694;BME280;23531;50.122;8.644;2023-04-26T01:06:05;100712.91;;;8.76;53.50
37694;BME280;23531;50.122;8.644;2023-04-26T01:08:06;100712.41;;;8.66;54.06
37694;BME280;23531;50.122;8.644;2023-04-26T01:10:08;100712.63;;;8.71;53.95
37694;BME280;23531;50.122;8.644;2023-04-26T01:12:10;100705.09;;;8.81;53.07
37694;BME280;23531;50.122;8.644;2023-04-26T01:14:14;100707.78;;;8.81;53.45
37694;BME280;23531;50.122;8.644;2023-04-26T01:16:15;100707.41;;;8.84;53.54
37694;BME280;23531;50.122;8.644;2023-04-26T01:18:18;100706.53;;;8.98;52.76
37694;BME280;23531;50.122;8.644;2023-04-26T01:20:19;100711.88;;;8.98;52.77
37694;BME280;23531;50.122;8.644;2023-04-26T01:22:20;100712.13;;;9.03;52.83
37694;BME280;23531;50.122;8.644;2023-04-26T01:24:23;100713.53;;;8.99;53.46
37694;BME280;23531;50.122;8.644;2023-04-26T01:26:24;100714.09;;;8.95;52.72
37694;BME280;23531;50.122;8.644;2023-04-26T01:28:26;100706.00;;;8.88;53.27
37694;BME280;23531;50.122;8.644;2023-04-26T01:30:27;100708.69;;;8.88;53.59
37694;BME280;23531;50.122;8.644;2023-04-26T01:32:28;100705.41;;;8.93;53.04
37694;BME280;23531;50.122;8.644;2023-04-26T01:34:29;100704.41;;;8.94;53.45
37694;BME280;23531;50.122;8.644;2023-04-26T01:36:32;100699.44;;;8.91;53.51
37694;BME280;23531;50.122;8.644;2023-04-26T01:38:33;100706.75;;;8.82;53.68
37694;BME280;23531;50.122;8.644;2023-04-26T01:40:36;100697.31;;;8.86;53.85
37694;BME280;23531;50.122;8.644;2023-04-26T01:42:37;100699.75;;;8.81;53.58
37694;BME280;23531;50.122;8.644;2023-04-26T01:44:38;100703.06;;;8.62;54.31
37694;BME280;23531;50.122;8.644;2023-04-26T01:46:40;100702.31;;;8.68;53.94
37694;BME280;23531;50.122;8.644;2023-04-26T01:48:41;100714.75;;;8.54;54.97
37694;BME280;23531;50.122;8.644;2023-04-26T01:50:42;100710.34;;;8.68;54.48
37694;BME280;23531;50.122;8.644;2023-04-26T01:52:43;100716.16;;;8.71;54.73
37694;BME280;23531;50.122;8.644;2023-04-26T01:54:45;100708.69;;;8.67;54.14
37694;BME280;23531;50.122;8.644;2023-04-26T01:56:47;100720.88;;;8.69;54.13
37694;BME280;23531;50.122;8.644;2023-04-26T01:58:48;100713.03;;;8.68;54.35
37694;BME280;23531;50.122;8.644;2023-04-26T02:00:50;100710.34;;;8.68;54.50
37694;BME280;23531;50.122;8.644;2023-04-26T02:02:53;100712.03;;;8.69;54.27
37694;BME280;23531;50.122;8.644;2023-04-26T02:04:54;100717.44;;;8.54;54.42
37694;BME280;23531;50.122;8.644;2023-04-26T02:06:55;100713.25;;;8.52;54.99
37694;BME280;23531;50.122;8.644;2023-04-26T02:08:57;100715.66;;;8.47;54.79
37694;BME280;23531;50.122;8.644;2023-04-26T02:10:58;100716.44;;;8.41;54.72
37694;BME280;23531;50.122;8.644;2023-04-26T02:13:01;100719.94;;;8.26;55.50
37694;BME280;23531;50.122;8.644;2023-04-26T02:15:02;100718.03;;;8.06;56.27
37694;BME280;23531;50.122;8.644;2023-04-26T02:17:03;100715.53;;;8.19;55.65
37694;BME280;23531;50.122;8.644;2023-04-26T02:19:05;100726.34;;;7.96;56.55
37694;BME280;23531;50.122;8.644;2023-04-26T02:21:09;100733.94;;;7.78;57.23
37694;BME280;23531;50.122;8.644;2023-04-26T02:23:11;100731.81;;;7.88;57.49
37694;BME280;23531;50.122;8.644;2023-04-26T02:25:12;100728.03;;;7.97;57.56
37694;BME280;23531;50.122;8.644;2023-04-26T02:27:13;100736.22;;;8.10;57.22
37694;BME280;23531;50.122;8.644;2023-04-26T02:39:50;100717.25;;;8.26;55.91
37694;BME280;23531;50.122;8.644;2023-04-26T02:41:51;100726.97;;;8.27;55.61
37694;BME280;23531;50.122;8.644;2023-04-26T02:43:53;100723.50;;;8.12;56.07
37694;BME280;23531;50.122;8.644;2023-04-26T02:45:54;100726.16;;;8.12;56.21
37694;BME280;23531;50.122;8.644;2023-04-26T02:47:57;100728.91;;;8.19;56.20
37694;BME280;23531;50.122;8.644;2023-04-26T02:49:58;100723.28;;;8.14;56.63
37694;BME280;23531;50.122;8.644;2023-04-26T02:52:00;100713.63;;;7.98;56.99
37694;BME280;23531;50.122;8.644;2023-04-26T02:54:01;100713.81;;;7.82;57.24
37694;BME280;23531;50.122;8.644;2023-04-26T02:56:04;100707.44;;;7.83;57.49
37694;BME280;23531;50.122;8.644;2023-04-26T02:58:06;100709.00;;;7.92;57.99
37694;BME280;23531;50.122;8.644;2023-04-26T03:00:07;100711.66;;;7.92;57.49
37694;BME280;23531;50.122;8.644;2023-04-26T03:02:09;100717.50;;;7.95;57.96
37694;BME280;23531;50.122;8.644;2023-04-26T03:04:10;100711.19;;;8.03;56.98
37694;BME280;23531;50.122;8.644;2023-04-26T03:06:11;100714.63;;;7.97;57.00
37694;BME280;23531;50.122;8.644;2023-04-26T03:08:13;100723.56;;;8.04;57.12
37694;BME280;23531;50.122;8.644;2023-04-26T03:10:14;100719.34;;;7.95;56.94
37694;BME280;23531;50.122;8.644;2023-04-26T03:12:17;100709.94;;;7.84;57.27
37694;BME280;23531;50.122;8.644;2023-04-26T03:14:18;100718.31;;;7.96;56.84
37694;BME280;23531;50.122;8.644;2023-04-26T03:16:21;100718.16;;;7.97;57.22
37694;BME280;23531;50.122;8.644;2023-04-26T03:18:23;100714.06;;;8.01;56.40
37694;BME280;23531;50.122;8.644;2023-04-26T03:20:24;100712.22;;;8.02;56.29
37694;BME280;23531;50.122;8.644;2023-04-26T03:22:25;100708.09;;;7.85;57.17
37694;BME280;23531;50.122;8.644;2023-04-26T03:24:27;100704.84;;;7.75;56.91
37694;BME280;23531;50.122;8.644;2023-04-26T03:26:28;100706.97;;;7.64;57.82
37694;BME280;23531;50.122;8.644;2023-04-26T03:28:31;100709.38;;;7.59;58.29
37694;BME280;23531;50.122;8.644;2023-04-26T03:30:32;100709.47;;;7.51;58.21
37694;BME280;23531;50.122;8.644;2023-04-26T03:32:33;100709.53;;;7.58;58.73
37694;BME280;23531;50.122;8.644;2023-04-26T03:34:34;100709.72;;;7.56;58.07
37694;BME280;23531;50.122;8.644;2023-04-26T03:36:36;100704.56;;;7.55;58.38
37694;BME280;23531;50.122;8.644;2023-04-26T03:38:37;100708.44;;;7.52;59.12
37694;BME280;23531;50.122;8.644;2023-04-26T03:40:38;100710.09;;;7.53;58.80
37694;BME280;23531;50.122;8.644;2023-04-26T03:42:39;100710.66;;;7.49;59.13
37694;BME280;23531;50.122;8.644;2023-04-26T03:44:42;100714.59;;;7.38;59.55
37694;BME280;23531;50.122;8.644;2023-04-26T03:46:43;100721.31;;;7.19;60.24
37694;BME280;23531;50.122;8.644;2023-04-26T03:48:44;100710.63;;;7.34;59.87
37694;BME280;23531;50.122;8.644;2023-04-26T03:50:46;100717.56;;;7.43;59.74
37694;BME280;23531;50.122;8.644;2023-04-26T03:52:47;100715.28;;;7.55;59.20
37694;BME280;23531;50.122;8.644;2023-04-26T03:54:48;100717.84;;;7.48;59.28
37694;BME280;23531;50.122;8.644;2023-04-26T03:56:50;100722.31;;;7.56;59.21
37694;BME280;23531;50.122;8.644;2023-04-26T03:58:51;100720.72;;;7.61;58.90
37694;BME280;23531;50.122;8.644;2023-04-26T04:00:56;100708.72;;;7.72;59.30
37694;BME280;23531;50.122;8.644;2023-04-26T04:02:57;100716.69;;;7.65;58.33
37694;BME280;23531;50.122;8.644;2023-04-26T04:04:59;100713.25;;;7.72;58.07
37694;BME280;23531;50.122;8.644;2023-04-26T04:07:00;100712.88;;;7.60;58.17
37694;BME280;23531;50.122;8.644;2023-04-26T04:09:01;100716.34;;;7.31;58.83
37694;BME280;23531;50.122;8.644;2023-04-26T04:11:04;100708.91;;;7.41;58.69
37694;BME280;23531;50.122;8.644;2023-04-26T04:13:05;100709.38;;;7.45;58.63
37694;BME280;23531;50.122;8.644;2023-04-26T04:15:07;100712.69;;;7.61;58.24
37694;BME280;23531;50.122;8.644;2023-04-26T04:17:10;100710.56;;;7.42;58.12
37694;BME280;23531;50.122;8.644;2023-04-26T04:19:12;100713.06;;;7.44;58.13
37694;BME280;23531;50.122;8.644;2023-04-26T04:21:13;100719.59;;;7.41;58.42
37694;BME280;23531;50.122;8.644;2023-04-26T04:23:14;100721.53;;;7.47;58.13
37694;BME280;23531;50.122;8.644;2023-04-26T04:25:16;100716.94;;;7.56;57.59
37694;BME280;23531;50.122;8.644;2023-04-26T04:27:20;100720.16;;;7.51;56.93
37694;BME280;23531;50.122;8.644;2023-04-26T04:29:21;100716.84;;;7.49;56.92
37694;BME280;23531;50.122;8.644;2023-04-26T04:31:23;100723.19;;;7.48;56.50
37694;BME280;23531;50.122;8.644;2023-04-26T04:33:25;100722.38;;;7.62;56.75
37694;BME280;23531;50.122;8.644;2023-04-26T04:35:29;100721.56;;;7.62;56.21
37694;BME280;23531;50.122;8.644;2023-04-26T04:37:32;100729.03;;;7.67;56.02
37694;BME280;23531;50.122;8.644;2023-04-26T04:39:33;100730.78;;;7.59;56.11
37694;BME280;23531;50.122;8.644;2023-04-26T04:41:35;100735.78;;;7.62;55.37
37694;BME280;23531;50.122;8.644;2023-04-26T04:43:36;100738.72;;;7.68;56.04
37694;BME280;23531;50.122;8.644;2023-04-26T04:45:37;100740.00;;;7.72;56.03
37694;BME280;23531;50.122;8.644;2023-04-26T04:47:38;100739.00;;;7.73;55.74
37694;BME280;23531;50.122;8.644;2023-04-26T04:49:41;100745.38;;;7.72;55.52
37694;BME280;23531;50.122;8.644;2023-04-26T04:51:42;100746.38;;;7.71;56.40
37694;BME280;23531;50.122;8.644;2023-04-26T04:53:44;100741.78;;;7.64;55.68
37694;BME280;23531;50.122;8.644;2023-04-26T04:55:45;100745.63;;;7.62;56.61
37694;BME280;23531;50.122;8.644;2023-04-26T04:57:46;100744.81;;;7.61;56.30
37694;BME280;23531;50.122;8.644;2023-04-26T04:59:47;100765.38;;;7.61;56.21
37694;BME280;23531;50.122;8.644;2023-04-26T05:01:49;100762.22;;;7.57;56.56
37694;BME280;23531;50.122;8.644;2023-04-26T05:03:50;100770.00;;;7.52;56.49
37694;BME280;23531;50.122;8.644;2023-04-26T05:05:52;100766.75;;;7.57;57.14
37694;BME280;23531;50.122;8.644;2023-04-26T05:07:54;100767.88;;;7.62;57.33
37694;BME280;23531;50.122;8.644;2023-04-26T05:09:55;100763.19;;;7.64;57.59
37694;BME280;23531;50.122;8.644;2023-04-26T05:11:56;100768.59;;;7.56;57.60
37694;BME280;23531;50.122;8.644;2023-04-26T05:13:58;100770.00;;;7.52;57.67
37694;BME280;23531;50.122;8.644;2023-04-26T05:15:59;100772.31;;;7.55;57.83
37694;BME280;23531;50.122;8.644;2023-04-26T05:18:00;100775.53;;;7.51;58.08
37694;BME280;23531;50.122;8.644;2023-04-26T05:20:02;100776.34;;;7.51;58.15
37694;BME280;23531;50.122;8.644;2023-04-26T05:22:07;100776.44;;;7.58;58.23
37694;BME280;23531;50.122;8.644;2023-04-26T05:24:08;100774.69;;;7.50;58.48
37694;BME280;23531;50.122;8.644;2023-04-26T05:26:12;100785.69;;;7.55;59.19
37694;BME280;23531;50.122;8.644;2023-04-26T05:28:13;100791.66;;;7.57;58.66
37694;BME280;23531;50.122;8.644;2023-04-26T05:30:14;100795.78;;;7.45;58.44
37694;BME280;23531;50.122;8.644;2023-04-26T05:32:16;100792.75;;;7.48;59.13
37694;BME280;23531;50.122;8.644;2023-04-26T05:34:17;100796.19;;;7.57;59.49
37694;BME280;23531;50.122;8.644;2023-04-26T05:36:18;100792.63;;;7.64;59.61
37694;BME280;23531;50.122;8.644;2023-04-26T05:38:21;100788.53;;;7.69;59.07
37694;BME280;23531;50.122;8.644;2023-04-26T05:40:22;100799.91;;;7.71;59.71
37694;BME280;23531;50.122;8.644;2023-04-26T05:42:24;100785.25;;;7.81;59.01
37694;BME280;23531;50.122;8.644;2023-04-26T05:44:25;100789.22;;;7.85;59.27
37694;BME280;23531;50.122;8.644;2023-04-26T05:46:26;100796.72;;;7.90;58.58
37694;BME280;23531;50.122;8.644;2023-04-26T05:48:27;100790.53;;;7.89;58.47
37694;BME280;23531;50.122;8.644;2023-04-26T05:50:29;100793.66;;;7.93;59.09
37694;BME280;23531;50.122;8.644;2023-04-26T05:52:31;100792.00;;;7.77;59.23
37694;BME280;23531;50.122;8.644;2023-04-26T05:54:34;100796.03;;;7.73;59.41
37694;BME280;23531;50.122;8.644;2023-04-26T05:56:35;100792.25;;;7.68;58.87
37694;BME280;23531;50.122;8.644;2023-04-26T05:58:36;100798.94;;;7.49;59.34
37694;BME280;23531;50.122;8.644;2023-04-26T06:00:37;100800.97;;;7.47;59.65
37694;BME280;23531;50.122;8.644;2023-04-26T06:02:40;100805.25;;;7.56;58.86
37694;BME280;23531;50.122;8.644;2023-04-26T06:04:41;100797.09;;;7.49;58.80
37694;BME280;23531;50.122;8.644;2023-04-26T06:06:42;100809.03;;;7.61;59.44
37694;BME280;23531;50.122;8.644;2023-04-26T06:08:43;100807.50;;;7.82;58.73
37694;BME280;23531;50.122;8.644;2023-04-26T06:10:46;100817.75;;;7.93;58.65
37694;BME280;23531;50.122;8.644;2023-04-26T06:12:47;100809.75;;;8.08;57.51
37694;BME280;23531;50.122;8.644;2023-04-26T06:14:49;100821.47;;;8.21;57.29
37694;BME280;23531;50.122;8.644;2023-04-26T06:16:50;100816.19;;;8.28;56.61
37694;BME280;23531;50.122;8.644;2023-04-26T06:18:51;100814.28;;;8.36;56.15
37694;BME280;23531;50.122;8.644;2023-04-26T06:20:52;100813.19;;;8.46;55.50
37694;BME280;23531;50.122;8.644;2023-04-26T06:22:54;100813.91;;;8.54;54.97
37694;BME280;23531;50.122;8.644;2023-04-26T06:24:55;100810.88;;;8.57;53.99
37694;BME280;23531;50.122;8.644;2023-04-26T06:26:57;100809.56;;;8.24;53.09
37694;BME280;23531;50.122;8.644;2023-04-26T06:28:59;100818.16;;;8.49;53.33
37694;BME280;23531;50.122;8.644;2023-04-26T06:31:00;100821.00;;;8.47;52.95
37694;BME280;23531;50.122;8.644;2023-04-26T06:33:01;100822.38;;;8.58;52.67
37694;BME280;23531;50.122;8.644;2023-04-26T06:35:03;100824.63;;;8.69;51.89
37694;BME280;23531;50.122;8.644;2023-04-26T06:37:04;100817.31;;;8.63;52.05
37694;BME280;23531;50.122;8.644;2023-04-26T06:39:05;100820.88;;;8.70;52.10
37694;BME280;23531;50.122;8.644;2023-04-26T06:41:07;100819.13;;;8.77;52.06
37694;BME280;23531;50.122;8.644;2023-04-26T06:43:09;100818.56;;;8.82;51.15
37694;BME280;23531;50.122;8.644;2023-04-26T06:45:10;100821.44;;;8.80;51.21
37694;BME280;23531;50.122;8.644;2023-04-26T06:47:12;100817.63;;;8.89;51.16
37694;BME280;23531;50.122;8.644;2023-04-26T06:49:13;100820.81;;;8.99;50.79
37694;BME280;23531;50.122;8.644;2023-04-26T06:51:15;100824.44;;;8.92;50.36
37694;BME280;23531;50.122;8.644;2023-04-26T06:53:16;100826.56;;;8.96;50.08
37694;BME280;23531;50.122;8.644;2023-04-26T06:55:17;100825.53;;;8.97;50.34
37694;BME280;23531;50.122;8.644;2023-04-26T06:57:18;100825.47;;;8.91;50.11
37694;BME280;23531;50.122;8.644;2023-04-26T06:59:21;100823.28;;;8.80;49.92
37694;BME280;23531;50.122;8.644;2023-04-26T07:01:22;100824.25;;;8.93;49.96
37694;BME280;23531;50.122;8.644;2023-04-26T07:03:23;100822.69;;;8.99;50.18
37694;BME280;23531;50.122;8.644;2023-04-26T07:05:25;100819.41;;;9.03;50.16
37694;BME280;23531;50.122;8.644;2023-04-26T07:07:27;100819.31;;;9.12;50.42
37694;BME280;23531;50.122;8.644;2023-04-26T07:09:28;100817.06;;;9.15;50.00
37694;BME280;23531;50.122;8.644;2023-04-26T07:11:29;100819.81;;;9.22;49.81
37694;BME280;23531;50.122;8.644;2023-04-26T07:13:31;100826.84;;;9.23;49.98
37694;BME280;23531;50.122;8.644;2023-04-26T07:15:33;100830.19;;;9.25;49.71
37694;BME280;23531;50.122;8.644;2023-04-26T07:17:35;100826.91;;;9.29;49.32
37694;BME280;23531;50.122;8.644;2023-04-26T07:19:36;100824.50;;;9.34;49.23
37694;BME280;23531;50.122;8.644;2023-04-26T07:21:37;100817.13;;;9.22;49.50
37694;BME280;23531;50.122;8.644;2023-04-26T07:23:39;100823.69;;;9.40;49.04
37694;BME280;23531;50.122;8.644;2023-04-26T07:25:40;100823.41;;;9.78;48.13
37694;BME280;23531;50.122;8.644;2023-04-26T07:27:41;100824.09;;;9.87;47.69
37694;BME280;23531;50.122;8.644;2023-04-26T07:29:43;100824.28;;;10.13;47.66
37694;BME280;23531;50.122;8.644;2023-04-26T07:31:46;100818.41;;;10.72;47.18
37694;BME280;23531;50.122;8.644;2023-04-26T07:33:47;100815.69;;;11.72;46.61
37694;BME280;23531;50.122;8.644;2023-04-26T07:35:52;100815.19;;;12.41;44.45
37694;BME280;23531;50.122;8.644;2023-04-26T07:37:53;100808.44;;;13.08;42.14
37694;BME280;23531;50.122;8.644;2023-04-26T07:39:54;100812.72;;;13.54;42.40
37694;BME280;23531;50.122;8.644;2023-04-26T07:41:55;100814.13;;;14.06;41.82
37694;BME280;23531;50.122;8.644;2023-04-26T07:43:57;100814.19;;;14.17;40.11
37694;BME280;23531;50.122;8.644;2023-04-26T07:45:58;100811.28;;;14.37;39.91
37694;BME280;23531;50.122;8.644;2023-04-26T07:48:01;100811.94;;;14.87;41.26
37694;BME280;23531;50.122;8.644;2023-04-26T07:50:02;100814.16;;;15.09;40.48
37694;BME280;23531;50.122;8.644;2023-04-26T07:52:04;100806.34;;;15.01;39.40
37694;BME280;23531;50.122;8.644;2023-04-26T07:54:05;100804.59;;;14.76;38.30
37694;BME280;23531;50.122;8.644;2023-04-26T07:56:06;100805.78;;;14.07;37.52
37694;BME280;23531;50.122;8.644;2023-04-26T07:58:08;100807.88;;;14.05;39.63
37694;BME280;23531;50.122;8.644;2023-04-26T08:00:13;100804.94;;;14.07;39.48
37694;BME280;23531;50.122;8.644;2023-04-26T08:02:15;100801.50;;;14.36;38.40
37694;BME280;23531;50.122;8.644;2023-04-26T08:04:29;100801.00;;;14.64;38.78
37694;BME280;23531;50.122;8.644;2023-04-26T08:06:30;100803.78;;;15.06;38.78
37694;BME280;23531;50.122;8.644;2023-04-26T08:08:32;100806.13;;;15.44;39.49
37694;BME280;23531;50.122;8.644;2023-04-26T08:10:39;100810.44;;;15.98;39.06
37694;BME280;23531;50.122;8.644;2023-04-26T08:12:40;100809.75;;;15.91;37.09
37694;BME280;23531;50.122;8.644;2023-04-26T08:14:42;100806.91;;;15.97;38.12
37694;BME280;23531;50.122;8.644;2023-04-26T08:16:43;100812.09;;;16.22;38.66
37694;BME280;23531;50.122;8.644;2023-04-26T08:18:44;64050.78;;;-142.95;100.00
37694;BME280;23531;50.122;8.644;2023-04-26T08:20:47;64050.78;;;-142.95;100.00
37694;BME280;23531;50.122;8.644;2023-04-26T08:22:48;64050.78;;;-142.95;100.00
37694;BME280;23531;50.122;8.644;2023-04-26T08:24:54;64050.78;;;-142.95;100.00
37694;BME280;23531;50.122;8.644;2023-04-26T08:26:55;64050.78;;;-142.95;100.00
37694;BME280;23531;50.122;8.644;2023-04-26T08:28:57;64050.78;;;-142.95;100.00
37694;BME280;23531;50.122;8.644;2023-04-26T08:30:59;64050.78;;;-142.95;100.00
37694;BME280;23531;50.122;8.644;2023-04-26T08:33:00;64050.78;;;-142.95;100.00
37694;BME280;23531;50.122;8.644;2023-04-26T08:35:01;64050.78;;;-142.95;100.00
37694;BME280;23531;50.122;8.644;2023-04-26T08:37:05;64050.78;;;-142.95;100.00
37694;BME280;23531;50.122;8.644;2023-04-26T08:39:07;64050.78;;;-142.95;100.00
37694;BME280;23531;50.122;8.644;2023-04-26T08:41:08;64050.78;;;-142.95;100.00
37694;BME280;23531;50.122;8.644;2023-04-26T08:43:13;64050.78;;;-142.95;100.00
37694;BME280;23531;50.122;8.644;2023-04-26T08:45:15;64050.78;;;-142.95;100.00
37694;BME280;23531;50.122;8.644;2023-04-26T08:47:17;64050.78;;;-142.95;100.00
37694;BME280;23531;50.122;8.644;2023-04-26T08:49:21;64050.78;;;-142.95;100.00
37694;BME280;23531;50.122;8.644;2023-04-26T08:51:26;64050.78;;;-142.95;100.00
37694;BME280;23531;50.122;8.644;2023-04-26T08:53:30;64050.78;;;-142.95;100.00
37694;BME280;23531;50.122;8.644;2023-04-26T08:55:31;64050.78;;;-142.95;100.00
37694;BME280;23531;50.122;8.644;2023-04-26T08:57:33;64050.78;;;-142.95;100.00
37694;BME280;23531;50.122;8.644;2023-04-26T08:59:35;64050.78;;;-142.95;100.00
37694;BME280;23531;50.122;8.644;2023-04-26T09:01:37;64050.78;;;-142.95;100.00
37694;BME280;23531;50.122;8.644;2023-04-26T09:03:39;64050.78;;;-142.95;100.00
37694;BME280;23531;50.122;8.644;2023-04-26T09:05:40;64050.78;;;-142.95;100.00
37694;BME280;23531;50.122;8.644;2023-04-26T09:07:46;64050.78;;;-142.95;100.00
37694;BME280;23531;50.122;8.644;2023-04-26T09:09:49;64050.78;;;-142.95;100.00
37694;BME280;23531;50.122;8.644;2023-04-26T09:11:54;64050.78;;;-142.95;100.00
37694;BME280;23531;50.122;8.644;2023-04-26T09:13:55;64050.78;;;-142.95;100.00
37694;BME280;23531;50.122;8.644;2023-04-26T09:15:57;64050.78;;;-142.95;100.00
37694;BME280;23531;50.122;8.644;2023-04-26T09:20:18;64050.78;;;-142.95;100.00
37694;BME280;23531;50.122;8.644;2023-04-26T09:22:26;64050.78;;;-142.95;100.00
37694;BME280;23531;50.122;8.644;2023-04-26T09:24:28;64050.78;;;-142.95;100.00
37694;BME280;23531;50.122;8.644;2023-04-26T09:26:30;64050.78;;;-142.95;100.00
37694;BME280;23531;50.122;8.644;2023-04-26T09:28:32;64050.78;;;-142.95;100.00
37694;BME280;23531;50.122;8.644;2023-04-26T09:30:37;64050.78;;;-142.95;100.00
37694;BME280;23531;50.122;8.644;2023-04-26T09:32:42;64050.78;;;-142.95;100.00
37694;BME280;23531;50.122;8.644;2023-04-26T09:34:43;64050.78;;;-142.95;100.00
37694;BME280;23531;50.122;8.644;2023-04-26T09:36:46;64050.78;;;-142.95;100.00
37694;BME280;23531;50.122;8.644;2023-04-26T09:38:47;64050.78;;;-142.95;100.00
37694;BME280;23531;50.122;8.644;2023-04-26T09:40:49;64050.78;;;-142.95;100.00
37694;BME280;23531;50.122;8.644;2023-04-26T09:42:59;64050.78;;;-142.95;100.00
37694;BME280;23531;50.122;8.644;2023-04-26T09:45:04;64050.78;;;-142.95;100.00
37694;BME280;23531;50.122;8.644;2023-04-26T09:47:05;64050.78;;;-142.95;100.00
37694;BME280;23531;50.122;8.644;2023-04-26T09:49:08;64050.78;;;-142.95;100.00
37694;BME280;23531;50.122;8.644;2023-04-26T09:51:09;64050.78;;;-142.95;100.00
37694;BME280;23531;50.122;8.644;2023-04-26T09:53:11;64050.78;;;-142.95;100.00
37694;BME280;23531;50.122;8.644;2023-04-26T09:55:27;64050.78;;;-142.95;100.00
37694;BME280;23531;50.122;8.644;2023-04-26T09:57:29;64050.78;;;-142.95;100.00
37694;BME280;23531;50.122;8.644;2023-04-26T09:59:39;64050.78;;;-142.95;100.00
37694;BME280;23531;50.122;8.644;2023-04-26T10:01:40;64050.78;;;-142.95;100.00
37694;BME280;23531;50.122;8.644;2023-04-26T10:03:41;64050.78;;;-142.95;100.00
37694;BME280;23531;50.122;8.644;2023-04-26T10:05:43;64050.78;;;-142.95;100.00
37694;BME280;23531;50.122;8.644;2023-04-26T10:07:44;64050.78;;;-142.95;100.00
37694;BME280;23531;50.122;8.644;2023-04-26T10:09:46;64050.78;;;-142.95;100.00
37694;BME280;23531;50.122;8.644;2023-04-26T10:11:47;64050.78;;;-142.95;100.00
37694;BME280;23531;50.122;8.644;2023-04-26T10:13:49;64050.78;;;-142.95;100.00
37694;BME280;23531;50.122;8.644;2023-04-26T10:15:52;64050.78;;;-142.95;100.00
37694;BME280;23531;50.122;8.644;2023-04-26T10:17:53;64050.78;;;-142.95;100.00
37694;BME280;23531;50.122;8.644;2023-04-26T10:19:55;64050.78;;;-142.95;100.00
37694;BME280;23531;50.122;8.644;2023-04-26T10:21:59;64050.78;;;-142.95;100.00
37694;BME280;23531;50.122;8.644;2023-04-26T10:24:02;64050.78;;;-142.95;100.00
37694;BME280;23531;50.122;8.644;2023-04-26T10:26:03;64050.78;;;-142.95;100.00
37694;BME280;23531;50.122;8.644;2023-04-26T10:28:05;64050.78;;;-142.95;100.00
37694;BME280;23531;50.122;8.644;2023-04-26T10:30:07;64050.78;;;-142.95;100.00
37694;BME280;23531;50.122;8.644;2023-04-26T10:32:12;64050.78;;;-142.95;100.00
37694;BME280;23531;50.122;8.644;2023-04-26T10:34:19;64050.78;;;-142.95;100.00
37694;BME280;23531;50.122;8.644;2023-04-26T10:36:21;64050.78;;;-142.95;100.00
37694;BME280;23531;50.122;8.644;2023-04-26T10:38:22;64050.78;;;-142.95;100.00
37694;BME280;23531;50.122;8.644;2023-04-26T10:40:23;64050.78;;;-142.95;100.00
37694;BME280;23531;50.122;8.644;2023-04-26T10:42:26;64050.78;;;-142.95;100.00
37694;BME280;23531;50.122;8.644;2023-04-26T10:44:38;64050.78;;;-142.95;100.00
37694;BME280;23531;50.122;8.644;2023-04-26T10:46:40;64050.78;;;-142.95;100.00
37694;BME280;23531;50.122;8.644;2023-04-26T10:48:43;64050.78;;;-142.95;100.00
37694;BME280;23531;50.122;8.644;2023-04-26T10:53:04;64050.78;;;-142.95;100.00
37694;BME280;23531;50.122;8.644;2023-04-26T10:55:05;64050.78;;;-142.95;100.00